Latest Coastal Weather Observations for Onslow Airport

IDW60701

Issued at 8:33 pm WST Sunday 9 August 2020 (issued every 10 minutes, with the page automatically refreshed every 10 minutes)

About coastal observations | Map of coastal stations | Coastal observations for WA | Marine services | Other Formats
Station Details ID: 005017 Name: ONSLOW AIRPORT Lat: -21.67 Lon: 115.11 Height: 10.5 m
Data from the previous 72 hours. | See also: Recent months at Onslow Airport
Date/Time
WST
Wind Sea
Height
m
Swell Vis
km
Cloud Weather Temp
°C
Press
hPa
Rain since
9am
mm
Dir  Spd
kts
Gust
kts
Height
m
Period
s
Dir
09/08:30pm NW 15 18 - - - - 7 Partly cloudy - 22.0 1011.1 0.0
09/08:00pm NNW 21 27 - - - - 10 Partly cloudy - 22.3 1010.8 0.0
09/07:30pm NNW 16 21 - - - - 10 Partly cloudy - 23.8 1010.3 0.0
09/07:00pm N 16 19 - - - - 10 Partly cloudy - 23.6 1010.1 0.0
09/06:30pm N 15 19 - - - - 10 Partly cloudy - 23.7 1010.1 0.0
09/06:00pm N 15 18 - - - - 10 Cloudy - 23.8 1009.8 0.0
09/05:30pm N 16 22 - - - - 10 Cloudy - 24.0 1009.8 0.0
09/05:00pm N 15 19 - - - - 10 Cloudy - 24.2 1009.7 0.0
09/04:30pm N 18 25 - - - - 10 Cloudy - 24.6 1009.3 0.0
09/04:00pm N 19 24 - - - - 10 Cloudy - 25.1 1009.4 0.0
09/03:30pm N 18 23 - - - - 10 Cloudy - 25.2 1009.4 0.0
09/03:00pm N 18 25 - - - - 10 Cloudy - 25.6 1009.5 0.0
09/02:30pm N 19 26 - - - - 10 Cloudy - 25.4 1009.5 0.0
09/02:00pm N 21 27 - - - - 10 Cloudy - 25.6 1009.7 0.0
09/01:30pm N 20 26 - - - - 10 Cloudy - 26.6 1009.9 0.0
09/01:00pm N 21 28 - - - - 10 Cloudy - 26.1 1010.3 0.0
09/12:30pm NNE 17 23 - - - - 10 Cloudy - 25.3 1010.9 0.0
09/12:00pm NNE 16 21 - - - - 10 Cloudy - 25.0 1011.5 0.0
09/11:30am NNE 18 23 - - - - 10 Partly cloudy - 24.4 1011.9 0.0
09/11:00am NNE 17 25 - - - - 10 Partly cloudy - 25.0 1012.3 0.0
09/10:30am NNE 17 23 - - - - 10 Partly cloudy - 24.6 1012.8 0.0
09/10:00am NNE 17 24 - - - - 10 Partly cloudy - 24.0 1013.0 0.0
09/09:30am NE 14 19 - - - - 10 Partly cloudy - 21.6 1012.8 0.0
09/09:00am NE 12 16 - - - - 10 Cloudy Rain 21.7 1012.9 0.0
09/08:30am NE 12 15 - - - - 10 Partly cloudy - 20.8 1012.9 0.0
09/08:00am N 14 22 - - - - 10 Partly cloudy - 20.9 1012.8 0.0
09/07:30am NNE 9 11 - - - - 10 Partly cloudy - 20.5 1012.8 0.0
09/07:00am NNE 13 18 - - - - 10 Partly cloudy - 20.8 1012.4 0.0
09/06:30am NNE 12 16 - - - - 10 Partly cloudy - 21.4 1012.0 0.0
09/06:00am NE 8 12 - - - - 10 Mostly cloudy - 19.2 1012.0 0.0
09/05:30am ENE 7 9 - - - - 10 Cloudy - 18.4 1011.8 0.0
09/05:00am NE 7 9 - - - - 10 Partly cloudy - 18.4 1011.7 0.0
09/04:30am ENE 7 9 - - - - 10 Partly cloudy - 18.7 1011.8 0.0
09/04:00am NE 8 9 - - - - 10 - - 18.6 1012.1 0.0
09/03:30am NE 9 11 - - - - 10 - - 19.2 1012.4 0.0
09/03:00am NE 10 12 - - - - 10 - - 19.6 1012.5 0.0
09/02:30am NE 11 14 - - - - 10 Partly cloudy - 20.5 1012.6 0.0
09/02:00am N 12 17 - - - - 10 - - 21.2 1012.6 0.0
09/01:30am N 12 17 - - - - 10 - - 21.0 1012.7 0.0
09/01:00am N 12 15 - - - - 10 - - 21.1 1012.9 0.0
09/12:30am NNE 13 19 - - - - 10 - - 21.1 1013.3 0.0
09/12:00am NNE 13 17 - - - - 10 - - 21.0 1013.5 0.0
 
Date/Time
WST
Wind Sea
Height
m
Swell Vis
km
Cloud Weather Temp
°C
Press
hPa
Rain since
9am
mm
Dir  Spd
kts
Gust
kts
Height
m
Period
s
Dir
08/11:30pm NNE 13 17 - - - - 10 - - 21.1 1013.7 0.0
08/11:00pm NNE 10 12 - - - - 10 - - 20.7 1013.9 0.0
08/10:30pm NNE 12 16 - - - - 10 - - 20.6 1014.0 0.0
08/10:00pm NNE 12 15 - - - - 10 - - 20.7 1014.0 0.0
08/09:30pm NNE 12 15 - - - - 10 - - 20.7 1013.9 0.0
08/09:00pm NNE 15 18 - - - - 10 Partly cloudy - 20.9 1013.9 0.0
08/08:30pm NE 15 19 - - - - 10 - - 20.9 1013.5 0.0
08/08:00pm NNE 15 19 - - - - 10 - - 21.0 1013.5 0.0
08/07:30pm NNE 15 18 - - - - 10 - - 21.0 1013.5 0.0
08/07:00pm NNE 14 19 - - - - 10 - - 21.1 1013.5 0.0
08/06:30pm NNE 17 23 - - - - 10 - - 21.2 1012.9 0.0
08/06:00pm NNE 19 24 - - - - 10 - - 21.6 1013.1 0.0
08/05:30pm NNE 17 22 - - - - 10 - - 22.1 1013.2 0.0
08/05:00pm NNE 18 24 - - - - 10 - - 22.8 1013.4 0.0
08/04:30pm NNE 18 23 - - - - 10 - - 23.1 1013.3 0.0
08/04:00pm NNE 18 23 - - - - 10 - - 23.6 1013.5 0.0
08/03:30pm NNE 18 24 - - - - 10 - - 23.8 1013.5 0.0
08/03:00pm NNE 18 23 - - - - 10 - - 24.0 1013.7 0.0
08/02:30pm NNE 19 27 - - - - 10 - - 24.5 1013.5 0.0
08/02:00pm NE 19 24 - - - - 10 - - 24.5 1013.8 0.0
08/01:30pm NNE 18 23 - - - - 10 - - 24.6 1014.1 0.0
08/01:00pm NNE 17 23 - - - - 10 - - 23.9 1014.6 0.0
08/12:30pm NNE 17 21 - - - - 10 - - 24.3 1015.2 0.0
08/12:00pm NNE 15 20 - - - - 10 - - 24.4 1016.1 0.0
08/11:30am NE 16 20 - - - - 10 - - 24.3 1016.4 0.0
08/11:00am NNE 16 22 - - - - 10 - - 24.4 1017.0 0.0
08/10:30am NE 14 19 - - - - 10 - - 24.8 1017.4 0.0
08/10:00am ENE 12 14 - - - - 10 - - 23.4 1017.4 0.0
08/09:30am E 13 15 - - - - 10 - - 22.5 1017.5 0.0
08/09:00am ENE 11 13 - - - - 10 - - 21.4 1017.4 0.0
08/08:30am E 10 13 - - - - 10 - - 19.8 1017.2 0.0
08/08:00am E 9 11 - - - - 10 - - 18.4 1017.1 0.0
08/07:30am E 11 13 - - - - 10 - - 16.9 1016.9 0.0
08/07:00am E 11 13 - - - - 10 - - 16.0 1016.8 0.0
08/06:30am E 10 11 - - - - 10 - - 15.6 1016.6 0.0
08/06:00am E 9 11 - - - - 10 - - 15.3 1016.4 0.0
08/05:30am E 7 8 - - - - 10 - - 15.1 1016.2 0.0
08/05:00am E 7 8 - - - - 10 - - 14.7 1016.0 0.0
08/04:30am ESE 6 7 - - - - 10 - - 14.3 1015.8 0.0
08/04:00am ESE 6 7 - - - - 10 - - 13.9 1015.7 0.0
08/03:30am ESE 6 7 - - - - 10 - - 14.2 1015.9 0.0
08/03:00am ESE 6 7 - - - - 10 - - 14.3 1015.8 0.0
08/02:30am ESE 6 6 - - - - 10 - - 14.5 1015.9 0.0
08/02:00am ESE 5 6 - - - - 10 - - 15.0 1016.0 0.0
08/01:30am ESE 6 7 - - - - 10 - - 15.6 1016.2 0.0
08/01:00am ESE 4 4 - - - - 10 - - 16.2 1016.5 0.0
08/12:30am ESE 4 5 - - - - 10 - - 16.8 1016.5 0.0
08/12:00am N 5 6 - - - - 10 - - 17.5 1016.5 0.0
 
Date/Time
WST
Wind Sea
Height
m
Swell Vis
km
Cloud Weather Temp
°C
Press
hPa
Rain since
9am
mm
Dir  Spd
kts
Gust
kts
Height
m
Period
s
Dir
07/11:30pm N 5 6 - - - - 10 - - 18.5 1016.7 0.0
07/11:00pm N 6 7 - - - - 10 - - 18.6 1016.9 0.0
07/10:30pm N 7 8 - - - - 10 - - 18.9 1016.9 0.0
07/10:00pm N 8 9 - - - - 10 - - 19.1 1016.9 0.0
07/09:30pm N 9 11 - - - - 10 - - 19.7 1017.0 0.0
07/09:00pm N 10 13 - - - - 10 - - 20.2 1016.8 0.0
07/08:30pm N 10 13 - - - - 10 - - 20.2 1016.7 0.0
07/08:00pm N 9 12 - - - - 10 - - 20.2 1016.7 0.0
07/07:30pm N 9 11 - - - - 10 - - 20.3 1016.5 0.0
07/07:00pm NNE 10 14 - - - - 10 - - 20.6 1016.4 0.0
07/06:30pm N 11 15 - - - - 10 - - 20.6 1016.2 0.0
07/06:00pm N 12 16 - - - - 10 - - 21.0 1016.1 0.0
07/05:30pm N 13 17 - - - - 10 - - 21.9 1016.2 0.0
07/05:00pm N 15 19 - - - - 10 - - 22.4 1016.1 0.0
07/04:30pm N 17 22 - - - - 10 - - 22.9 1016.1 0.0
07/04:00pm N 17 21 - - - - 10 - - 22.9 1016.0 0.0
07/03:30pm N 17 22 - - - - 10 - - 23.6 1016.0 0.0
07/03:00pm N 18 22 - - - - 10 - - 23.6 1016.3 0.0
07/02:30pm N 17 22 - - - - 10 - - 24.0 1016.4 0.0
07/02:00pm N 18 22 - - - - 10 - - 24.1 1016.9 0.0
07/01:30pm N 17 21 - - - - 10 - - 24.4 1017.2 0.0
07/01:00pm N 16 21 - - - - 10 - - 25.0 1017.9 0.0
07/12:30pm NNE 17 21 - - - - 10 - - 24.3 1018.3 0.0
07/12:00pm NNE 15 19 - - - - 10 - - 24.5 1018.8 0.0
07/11:30am NNE 16 20 - - - - 10 - - 24.5 1019.2 0.0
07/11:00am NNE 15 20 - - - - 10 - - 24.7 1019.3 0.0
07/10:30am ENE 15 18 - - - - 10 - - 23.9 1019.4 0.0
07/10:00am ENE 16 20 - - - - 10 - - 22.5 1019.3 0.0
07/09:30am ENE 14 18 - - - - 10 - - 21.4 1019.5 0.0
07/09:00am E 8 9 - - - - 10 - - 19.9 1019.4 0.0
07/08:30am ENE 10 12 - - - - 10 - - 18.8 1019.0 0.0
07/08:00am ENE 7 8 - - - - 10 - - 17.9 1018.8 0.0
07/07:30am E 7 10 - - - - 10 - - 16.0 1018.5 0.0
07/07:00am E 11 14 - - - - 10 - - 14.6 1017.6 0.0
07/06:30am ESE 7 8 - - - - 10 - - 12.4 1017.0 0.0
07/06:00am ESE 7 9 - - - - 10 - - 12.5 1016.7 0.0
07/05:30am SE 6 7 - - - - 10 - - 12.0 1016.3 0.0
07/05:00am SSE 6 7 - - - - 10 - - 12.3 1016.2 0.0
07/04:30am ESE 4 5 - - - - 10 - - 12.8 1016.1 0.0
07/04:00am E 5 6 - - - - 10 - - 13.1 1016.2 0.0
07/03:30am SE 4 5 - - - - 10 - - 13.2 1016.4 0.0
07/03:00am SE 6 8 - - - - 10 - - 12.8 1016.6 0.0
07/02:30am ESE 5 5 - - - - 10 - - 14.4 1016.6 0.0
07/02:00am E 5 6 - - - - 10 - - 14.7 1016.8 0.0
07/01:30am ENE 5 6 - - - - 10 - - 14.9 1016.9 0.0
07/01:00am ESE 4 5 - - - - 10 - - 15.2 1017.1 0.0
07/12:30am ESE 3 4 - - - - 10 - - 15.2 1017.1 0.0
07/12:00am ESE 1 4 - - - - 10 - - 15.6 1017.0 0.0
 
Date/Time
WST
Wind Sea
Height
m
Swell Vis
km
Cloud Weather Temp
°C
Press
hPa
Rain since
9am
mm
Dir  Spd
kts
Gust
kts
Height
m
Period
s
Dir
06/11:30pm ESE 1 3 - - - - 10 - - 15.6 1017.2 0.0
06/11:00pm ESE 3 3 - - - - 10 - - 16.1 1017.3 0.0
06/10:30pm SSE 2 4 - - - - 10 - - 16.6 1017.4 0.0
06/10:00pm WSW 2 4 - - - - 10 - - 16.7 1017.3 0.0
06/09:30pm CALM 0 0 - - - - 10 - - 16.8 1017.4 0.0
06/09:00pm WSW 4 4 - - - - 10 - - 17.2 1017.3 0.0

Other formats

Comma delimited format used in spreadsheet applications
http://www.bom.gov.au/fwo/IDW60701/IDW60701.95305.axf

JavaScript Object Notation format (JSON) in row-major order
http://www.bom.gov.au/fwo/IDW60701/IDW60701.95305.json

Data quality

Most of these data are generated automatically and are frequently updated. Quality checks on data are not normally performed. It is possible for incorrect values to appear. Refer to information at About Latest Weather Observations and please check the disclaimer before using these data.